Time;durP1;ratioP1;P1;durP2;ratioP2;P2;SDS_P1;SDS_P2;PMS_P1;PMS_P2;Temp;Humidity;BMP_temperature;BMP_pressure;BME280_temperature;BME280_humidity;BME280_pressure;Samples;Min_cycle;Max_cycle;Signal;HPM_P1;HPM_P2
2023/05/08 00:01:11;;;;;;;3.57;3.10;;;16.40;99.90;;;;;;5022654;28;20198;-75
2023/05/08 00:03:37;;;;;;;3.50;3.20;;;16.50;99.90;;;;;;5025212;28;20223;-75
2023/05/08 00:06:04;;;;;;;3.43;2.80;;;16.50;99.90;;;;;;5029519;28;20186;-75
2023/05/08 00:08:30;;;;;;;3.50;3.20;;;;;;;;;;5016356;28;20417;-74
2023/05/08 00:10:56;;;;;;;3.80;3.50;;;;;;;;;;5015624;28;20168;-75
2023/05/08 00:13:22;;;;;;;3.77;3.47;;;16.50;99.90;;;;;;5013598;28;20318;-74
2023/05/08 00:15:48;;;;;;;4.70;3.83;;;16.50;99.90;;;;;;5025973;28;20183;-75
2023/05/08 00:18:15;;;;;;;6.27;3.60;;;;;;;;;;5026537;28;20543;-74
2023/05/08 00:20:41;;;;;;;5.17;3.83;;;16.50;99.90;;;;;;5013387;28;20183;-75
2023/05/08 00:23:07;;;;;;;3.77;3.33;;;;;;;;;;5013668;28;20179;-75
2023/05/08 00:25:33;;;;;;;5.17;3.20;;;16.50;99.90;;;;;;5025327;28;20180;-75
2023/05/08 00:28:00;;;;;;;3.93;3.03;;;;;;;;;;5022066;28;20293;-75
2023/05/08 00:30:26;;;;;;;3.47;2.90;;;;;;;;;;5013987;28;20183;-74
2023/05/08 00:32:52;;;;;;;3.77;2.77;;;16.50;99.90;;;;;;5013316;28;20181;-75
2023/05/08 00:35:18;;;;;;;3.50;3.20;;;16.40;99.90;;;;;;5027068;28;20193;-75
2023/05/08 00:37:44;;;;;;;3.60;3.30;;;16.30;99.90;;;;;;5013602;28;20209;-75
2023/05/08 00:40:10;;;;;;;3.20;3.00;;;16.40;99.90;;;;;;5012611;28;20190;-76
2023/05/08 00:42:37;;;;;;;4.37;3.37;;;16.40;99.90;;;;;;5018523;28;20183;-75
2023/05/08 00:45:03;;;;;;;3.27;2.90;;;;;;;;;;5022294;28;20826;-75
2023/05/08 00:47:31;;;;;;;3.53;3.23;;;;;;;;;;5014724;28;20207;-75
2023/05/08 00:49:58;;;;;;;3.20;2.90;;;;;;;;;;5019827;28;20229;-75
2023/05/08 00:52:25;;;;;;;4.83;3.30;;;;;;;;;;5030798;28;20183;-75
2023/05/08 00:54:51;;;;;;;3.40;3.10;;;16.40;99.90;;;;;;5032126;28;20614;-75
2023/05/08 00:57:18;;;;;;;3.90;3.13;;;16.50;99.90;;;;;;5028111;28;20713;-74
2023/05/08 00:59:45;;;;;;;6.57;3.60;;;;;;;;;;5013043;28;20639;-75
2023/05/08 01:02:12;;;;;;;8.00;3.87;;;16.40;99.90;;;;;;5023458;28;20556;-75
2023/05/08 01:04:38;;;;;;;3.77;3.47;;;;;;;;;;5026224;28;20183;-75
2023/05/08 01:07:04;;;;;;;4.93;3.90;;;;;;;;;;5024582;28;20206;-75
2023/05/08 01:09:30;;;;;;;4.13;3.60;;;16.40;99.90;;;;;;5032496;28;20553;-75
2023/05/08 01:12:06;;;;;;;3.70;3.40;;;16.40;99.90;;;;;;5025117;28;20178;-75
2023/05/08 01:14:42;;;;;;;4.53;3.60;;;;;;;;;;5014017;28;20171;-75
2023/05/08 01:17:17;;;;;;;4.30;3.20;;;;;;;;;;5025702;28;20200;-75
2023/05/08 01:20:02;;;;;;;3.47;3.10;;;16.40;99.90;;;;;;5024035;28;20350;-74
2023/05/08 01:22:49;;;;;;;4.53;3.40;;;16.40;99.90;;;;;;5016704;28;20191;-75
2023/05/08 01:25:30;;;;;;;3.70;3.40;;;;;;;;;;5014802;28;20191;-75
2023/05/08 01:28:07;;;;;;;3.43;3.13;;;16.50;99.90;;;;;;5037095;28;20285;-75
2023/05/08 01:30:55;;;;;;;3.30;3.10;;;16.50;99.90;;;;;;5023250;28;20185;-75
2023/05/08 01:33:32;;;;;;;4.53;3.60;;;16.40;99.90;;;;;;5021662;28;20178;-75
2023/05/08 01:36:08;;;;;;;5.13;3.60;;;;;;;;;;5022463;28;20584;-75
2023/05/08 01:38:46;;;;;;;4.93;3.23;;;16.50;99.90;;;;;;5021323;28;20236;-76
2023/05/08 01:41:17;;;;;;;4.20;3.80;;;16.50;99.90;;;;;;5020653;28;20648;-75
2023/05/08 01:43:48;;;;;;;5.67;4.13;;;16.50;99.90;;;;;;5013215;28;20221;-75
2023/05/08 01:46:21;;;;;;;6.87;4.40;;;16.50;99.90;;;;;;5024028;28;20716;-75
2023/05/08 01:48:58;;;;;;;4.43;4.03;;;;;;;;;;5001492;28;20203;-75
2023/05/08 01:51:27;;;;;;;5.43;4.47;;;16.50;99.90;;;;;;5013487;28;20167;-75
2023/05/08 01:54:00;;;;;;;5.00;4.60;;;;;;;;;;5022605;28;20182;-75
2023/05/08 01:56:28;;;;;;;5.30;4.80;;;;;;;;;;5024881;28;20205;-75
2023/05/08 01:58:57;;;;;;;5.40;4.90;;;16.40;99.90;;;;;;5015757;28;20210;-74
2023/05/08 02:01:24;;;;;;;5.50;5.10;;;16.40;99.90;;;;;;5019967;28;20178;-75
2023/05/08 02:03:52;;;;;;;6.53;5.50;;;16.40;99.90;;;;;;5022255;28;20179;-75
2023/05/08 02:06:20;;;;;;;8.43;5.00;;;;;;;;;;5019830;28;20229;-76
2023/05/08 02:08:47;;;;;;;6.27;5.20;;;16.40;99.90;;;;;;5012114;28;20257;-75
2023/05/08 02:11:15;;;;;;;7.73;5.33;;;16.30;99.90;;;;;;5011016;28;20186;-76
2023/05/08 02:13:43;;;;;;;8.27;4.97;;;16.30;99.90;;;;;;5024521;28;20179;-75
2023/05/08 02:16:10;;;;;;;7.60;5.00;;;;;;;;;;5022983;28;20183;-74
2023/05/08 02:18:38;;;;;;;4.90;4.50;;;16.30;99.90;;;;;;5024372;28;20278;-75
2023/05/08 02:21:06;;;;;;;6.00;5.33;;;16.30;99.90;;;;;;5021113;28;20171;-75
2023/05/08 02:23:33;;;;;;;4.93;4.50;;;16.40;99.90;;;;;;5020766;28;20525;-75
2023/05/08 02:26:00;;;;;;;4.67;4.27;;;16.40;99.90;;;;;;5021502;28;20687;-75
2023/05/08 02:28:28;;;;;;;4.97;4.47;;;16.40;99.90;;;;;;5022133;28;20238;-77
2023/05/08 02:30:55;;;;;;;5.63;4.90;;;16.50;99.90;;;;;;5011771;28;20183;-75
2023/05/08 02:33:22;;;;;;;7.23;4.97;;;16.50;99.90;;;;;;5011486;28;20614;-75
2023/05/08 02:35:50;;;;;;;5.30;4.80;;;16.50;99.90;;;;;;5026068;28;20198;-75
2023/05/08 02:38:19;;;;;;;6.57;4.97;;;16.50;99.90;;;;;;5026873;28;20245;-77
2023/05/08 02:40:48;;;;;;;5.20;4.70;;;16.50;99.90;;;;;;5011745;28;20175;-77
2023/05/08 02:43:14;;;;;;;5.00;4.60;;;16.50;99.90;;;;;;4993874;28;20185;-76
2023/05/08 02:46:11;;;;;;;5.77;5.10;;;16.50;99.90;;;;;;5010211;28;20179;-75
2023/05/08 02:48:51;;;;;;;5.00;4.60;;;16.50;99.90;;;;;;5012532;28;20211;-75
2023/05/08 02:51:28;;;;;;;5.10;4.70;;;16.50;99.90;;;;;;5010103;28;20238;-76
2023/05/08 02:54:09;;;;;;;7.20;5.77;;;16.50;99.90;;;;;;5010129;28;20188;-75
2023/05/08 02:56:52;;;;;;;5.50;5.00;;;16.40;99.90;;;;;;5011406;28;20183;-76
2023/05/08 02:59:38;;;;;;;6.00;5.47;;;16.40;99.90;;;;;;5023709;28;20345;-75
2023/05/08 03:02:08;;;;;;;7.53;5.87;;;16.40;99.90;;;;;;5010087;28;20182;-75
2023/05/08 03:04:41;;;;;;;7.23;6.30;;;16.40;99.90;;;;;;5009730;28;20171;-75
2023/05/08 03:07:07;;;;;;;7.00;6.40;;;16.40;99.90;;;;;;5013639;28;20241;-74
2023/05/08 03:09:46;;;;;;;8.87;7.13;;;16.30;99.90;;;;;;5030994;28;20247;-75
2023/05/08 03:12:16;;;;;;;8.23;7.53;;;16.30;99.90;;;;;;5029500;28;20249;-75
2023/05/08 03:14:49;;;;;;;8.17;6.77;;;16.20;99.90;;;;;;5029863;28;20174;-75
2023/05/08 03:17:17;;;;;;;7.40;6.70;;;16.20;99.90;;;;;;5031187;28;20664;-75
2023/05/08 03:19:48;;;;;;;7.73;6.97;;;16.20;99.90;;;;;;5029819;28;20646;-74
2023/05/08 03:22:15;;;;;;;6.50;5.80;;;16.20;99.90;;;;;;5015855;28;20214;-75
2023/05/08 03:24:42;;;;;;;7.93;6.07;;;;;;;;;;5011389;28;20245;-75
2023/05/08 03:27:08;;;;;;;7.30;6.70;;;16.20;99.90;;;;;;5014382;28;20304;-75
2023/05/08 03:29:37;;;;;;;7.07;6.37;;;16.20;99.90;;;;;;5027366;28;20654;-74
2023/05/08 03:32:03;;;;;;;8.03;7.10;;;16.10;99.90;;;;;;5025578;28;20221;-74
2023/05/08 03:34:30;;;;;;;7.40;6.70;;;16.20;99.90;;;;;;5032990;28;20202;-74
2023/05/08 03:36:56;;;;;;;8.17;6.77;;;16.20;99.90;;;;;;5033573;28;20538;-76
2023/05/08 03:39:24;;;;;;;8.53;6.70;;;16.10;99.90;;;;;;5029689;28;20198;-75
2023/05/08 03:41:50;;;;;;;9.37;6.73;;;16.10;99.90;;;;;;5021429;28;20183;-75
2023/05/08 03:44:17;;;;;;;6.67;6.00;;;16.00;99.90;;;;;;5023152;28;20195;-75
2023/05/08 03:46:45;;;;;;;5.73;5.23;;;16.00;99.90;;;;;;5013311;28;20210;-75
2023/05/08 03:49:13;;;;;;;5.90;5.40;;;16.10;99.90;;;;;;5019064;28;20186;-74
2023/05/08 03:51:39;;;;;;;6.30;5.67;;;16.10;99.90;;;;;;5023411;28;20671;-75
2023/05/08 03:54:05;;;;;;;8.77;6.80;;;16.10;99.90;;;;;;5012746;28;20187;-76
2023/05/08 03:56:31;;;;;;;6.60;5.90;;;16.10;99.90;;;;;;5018327;28;20205;-75
2023/05/08 03:59:13;;;;;;;7.00;6.13;;;16.10;99.90;;;;;;5023263;28;20198;-74
2023/05/08 04:01:47;;;;;;;7.30;6.60;;;16.00;99.90;;;;;;5024193;28;20179;-75
2023/05/08 04:04:17;;;;;;;6.97;6.20;;;16.10;99.90;;;;;;5022483;28;20631;-75
2023/05/08 04:07:04;;;;;;;6.50;5.90;;;16.00;99.90;;;;;;5016651;28;20206;-75
2023/05/08 04:09:43;;;;;;;8.03;6.60;;;16.00;99.90;;;;;;5029300;28;20183;-75
2023/05/08 04:12:19;;;;;;;7.47;6.20;;;16.10;99.90;;;;;;5013522;28;20194;-76
2023/05/08 04:15:02;;;;;;;7.80;6.70;;;16.00;99.90;;;;;;5024292;28;20187;-76
2023/05/08 04:17:42;;;;;;;7.60;6.90;;;16.00;99.90;;;;;;5024363;28;20695;-76
2023/05/08 04:20:15;;;;;;;6.93;6.33;;;16.00;99.90;;;;;;5026151;28;20179;-75
2023/05/08 04:22:42;;;;;;;9.00;6.80;;;16.00;99.90;;;;;;5034919;22;20226;-77
2023/05/08 04:25:09;;;;;;;6.60;5.90;;;16.00;99.90;;;;;;5008806;28;20187;-76
2023/05/08 04:27:36;;;;;;;6.50;6.00;;;16.00;99.90;;;;;;5022040;28;20219;-76
2023/05/08 04:30:02;;;;;;;6.93;6.27;;;16.00;99.90;;;;;;5015574;28;20642;-77
2023/05/08 04:32:33;;;;;;;6.87;6.17;;;16.10;99.90;;;;;;5033133;28;20230;-76
2023/05/08 04:35:00;;;;;;;6.77;6.20;;;16.10;99.90;;;;;;5029703;28;20186;-78
2023/05/08 04:37:27;;;;;;;7.47;6.77;;;16.10;99.90;;;;;;5013565;28;20179;-76
2023/05/08 04:39:55;;;;;;;7.17;6.57;;;16.10;99.90;;;;;;5005294;28;20201;-76
2023/05/08 04:42:21;;;;;;;7.30;6.57;;;16.10;99.90;;;;;;5021709;28;20700;-76
2023/05/08 04:44:47;;;;;;;7.00;6.30;;;16.10;99.90;;;;;;4985573;28;20196;-76
2023/05/08 04:47:13;;;;;;;7.17;6.53;;;16.10;99.90;;;;;;5017623;28;20208;-77
2023/05/08 04:49:39;;;;;;;7.53;6.70;;;16.10;99.90;;;;;;5022734;28;20249;-76
2023/05/08 04:52:06;;;;;;;7.17;6.50;;;16.20;99.90;;;;;;5017557;28;20210;-76
2023/05/08 04:54:32;;;;;;;7.17;6.50;;;16.20;99.90;;;;;;5029327;28;20178;-76
2023/05/08 04:56:58;;;;;;;6.97;6.37;;;16.20;99.90;;;;;;5031755;28;20202;-76
2023/05/08 04:59:24;;;;;;;6.90;6.30;;;16.20;99.90;;;;;;5028065;28;20190;-76
2023/05/08 05:01:51;;;;;;;10.13;7.70;;;16.20;99.90;;;;;;5001316;28;20242;-79
2023/05/08 05:04:16;;;;;;;9.07;8.17;;;16.20;99.90;;;;;;5013804;28;20219;-78
2023/05/08 05:06:42;;;;;;;8.20;7.33;;;16.10;99.90;;;;;;5013893;28;20237;-77
2023/05/08 05:09:09;;;;;;;10.60;7.70;;;16.00;99.90;;;;;;5012122;28;20176;-81
2023/05/08 05:11:35;;;;;;;7.83;7.13;;;16.00;99.90;;;;;;5011933;28;20206;-77
2023/05/08 05:14:01;;;;;;;7.93;7.23;;;15.90;99.90;;;;;;5002349;28;20180;-80
2023/05/08 05:16:26;;;;;;;7.87;7.10;;;15.90;99.90;;;;;;4993075;28;20625;-80
2023/05/08 05:18:52;;;;;;;7.80;7.10;;;16.00;99.90;;;;;;4977181;28;20191;-80
2023/05/08 05:21:18;;;;;;;7.73;6.93;;;16.00;99.90;;;;;;4996043;28;20211;-79
2023/05/08 05:23:45;;;;;;;9.90;6.93;;;16.10;99.90;;;;;;5022874;28;20321;-82
2023/05/08 05:26:10;;;;;;;7.70;6.80;;;16.00;99.90;;;;;;5017168;28;20269;-77
2023/05/08 05:28:37;;;;;;;8.27;7.30;;;16.00;99.90;;;;;;5025731;28;20183;-76
2023/05/08 05:31:03;;;;;;;8.07;7.27;;;16.20;99.90;;;;;;5019491;28;20258;-76
2023/05/08 05:33:29;;;;;;;7.37;6.67;;;16.20;99.90;;;;;;5010999;28;20187;-76
2023/05/08 05:35:56;;;;;;;8.20;7.50;;;16.20;99.90;;;;;;5012041;28;20179;-76
2023/05/08 05:38:22;;;;;;;7.90;7.10;;;16.20;99.90;;;;;;5011719;28;20184;-76
2023/05/08 05:40:48;;;;;;;8.23;7.17;;;16.10;99.90;;;;;;5011910;28;20175;-76
2023/05/08 05:43:14;;;;;;;7.77;7.07;;;16.20;99.90;;;;;;5011283;28;20186;-76
2023/05/08 05:45:40;;;;;;;8.23;7.30;;;16.20;99.90;;;;;;5006541;28;20246;-76
2023/05/08 05:48:06;;;;;;;8.80;7.73;;;16.20;99.90;;;;;;5010795;28;20576;-80
2023/05/08 05:50:32;;;;;;;9.13;8.27;;;16.30;99.90;;;;;;5019358;28;20253;-80
2023/05/08 05:52:58;;;;;;;7.40;6.67;;;16.30;99.90;;;;;;4997509;28;20269;-80
2023/05/08 05:55:25;;;;;;;7.90;7.20;;;16.30;99.90;;;;;;5019819;28;20210;-80
2023/05/08 05:57:51;;;;;;;7.63;6.90;;;16.30;99.90;;;;;;5003080;28;20573;-81
2023/05/08 06:00:17;;;;;;;7.57;6.97;;;16.40;99.90;;;;;;5019816;28;20712;-79
2023/05/08 06:02:49;;;;;;;8.40;6.90;;;16.40;99.90;;;;;;5023084;28;20662;-76
2023/05/08 06:05:18;;;;;;;7.53;6.67;;;16.50;99.90;;;;;;5009951;28;20189;-76
2023/05/08 06:07:45;;;;;;;8.53;7.50;;;16.60;99.90;;;;;;5011892;28;20226;-76
2023/05/08 06:10:10;;;;;;;9.33;8.23;;;16.50;99.90;;;;;;4990378;28;20263;-77
2023/05/08 06:12:36;;;;;;;8.63;7.83;;;16.50;99.90;;;;;;5001874;28;20286;-76
2023/05/08 06:15:03;;;;;;;8.00;7.27;;;16.50;99.90;;;;;;5010779;28;20310;-76
2023/05/08 06:17:30;;;;;;;7.87;7.07;;;16.50;99.90;;;;;;5011155;28;20225;-77
2023/05/08 06:19:56;;;;;;;8.07;7.37;;;16.50;99.90;;;;;;5011144;28;20190;-76
2023/05/08 06:22:23;;;;;;;8.23;7.20;;;16.50;99.90;;;;;;5010244;28;20211;-76
2023/05/08 06:24:52;;;;;;;8.03;7.23;;;16.60;99.90;;;;;;5012206;28;20185;-76
2023/05/08 06:27:19;;;;;;;8.67;7.87;;;16.60;99.90;;;;;;5010850;28;20592;-76
2023/05/08 06:29:47;;;;;;;7.83;7.07;;;16.60;99.90;;;;;;5012047;28;20596;-76
2023/05/08 06:32:12;;;;;;;8.47;7.77;;;16.60;99.90;;;;;;5011630;28;20202;-77
2023/05/08 06:34:38;;;;;;;9.13;7.77;;;16.70;99.90;;;;;;5010829;28;20183;-77
2023/05/08 06:37:04;;;;;;;8.10;7.40;;;16.70;99.90;;;;;;4994695;28;20200;-76
2023/05/08 06:39:29;;;;;;;8.23;7.33;;;16.70;99.90;;;;;;5010614;28;20744;-77
2023/05/08 06:41:55;;;;;;;8.00;7.20;;;16.60;99.90;;;;;;5010627;28;20217;-77
2023/05/08 06:44:28;;;;;;;9.03;8.10;;;16.70;99.90;;;;;;5010415;28;20184;-77
2023/05/08 06:46:54;;;;;;;7.97;7.27;;;16.70;99.90;;;;;;5012182;28;20211;-79
2023/05/08 06:49:20;;;;;;;8.27;7.57;;;16.70;99.90;;;;;;5012026;28;20274;-77
2023/05/08 06:51:45;;;;;;;8.10;7.30;;;16.80;99.90;;;;;;5012369;28;20191;-77
2023/05/08 06:54:11;;;;;;;9.03;7.47;;;16.80;99.90;;;;;;5011375;28;20179;-77
2023/05/08 06:56:37;;;;;;;8.47;7.67;;;16.80;99.90;;;;;;5011584;28;20179;-77
2023/05/08 06:59:03;;;;;;;9.43;7.93;;;16.80;99.90;;;;;;5010354;28;20179;-77
2023/05/08 07:01:28;;;;;;;8.07;7.27;;;16.80;99.90;;;;;;5011687;28;20701;-77
2023/05/08 07:03:54;;;;;;;7.60;6.90;;;16.80;99.90;;;;;;5010362;28;20548;-77
2023/05/08 07:06:20;;;;;;;8.13;7.37;;;16.90;99.90;;;;;;5011084;28;20182;-77
2023/05/08 07:08:45;;;;;;;8.30;7.43;;;16.90;99.90;;;;;;5021081;28;20183;-77
2023/05/08 07:11:11;;;;;;;8.50;7.70;;;16.90;99.90;;;;;;5018120;28;20754;-78
2023/05/08 07:13:37;;;;;;;7.57;6.87;;;16.90;99.90;;;;;;5010790;28;20702;-77
2023/05/08 07:16:09;;;;;;;7.70;6.90;;;16.90;99.90;;;;;;5011748;28;20214;-77
2023/05/08 07:18:35;;;;;;;9.67;7.40;;;16.90;99.90;;;;;;5012780;28;20662;-77
2023/05/08 07:21:02;;;;;;;8.97;6.83;;;16.90;99.90;;;;;;4994322;28;20198;-77
2023/05/08 07:23:28;;;;;;;8.60;7.80;;;16.90;99.90;;;;;;5010122;28;20681;-77
2023/05/08 07:25:53;;;;;;;8.90;8.00;;;16.90;99.90;;;;;;5011562;28;20179;-77
2023/05/08 07:28:19;;;;;;;8.67;7.87;;;16.90;99.90;;;;;;5011728;28;20265;-77
2023/05/08 07:30:45;;;;;;;8.20;7.50;;;16.90;99.90;;;;;;5010200;28;20584;-77
2023/05/08 07:33:12;;;;;;;8.67;7.33;;;16.90;99.90;;;;;;5011095;28;20205;-77
2023/05/08 07:35:41;;;;;;;9.23;8.17;;;16.90;99.90;;;;;;5011401;28;20175;-77
2023/05/08 07:38:07;;;;;;;9.57;8.57;;;16.90;99.90;;;;;;5010377;28;20215;-77
2023/05/08 07:40:33;;;;;;;9.90;9.00;;;16.80;99.90;;;;;;5011408;28;20180;-77
2023/05/08 07:42:58;;;;;;;9.60;8.73;;;16.80;99.90;;;;;;5011082;28;20199;-77
2023/05/08 07:45:24;;;;;;;10.90;8.60;;;16.80;99.90;;;;;;5011615;28;20190;-77
2023/05/08 07:47:52;;;;;;;9.60;8.70;;;16.90;99.90;;;;;;5010215;28;20207;-77
2023/05/08 07:50:19;;;;;;;9.57;8.57;;;16.90;99.90;;;;;;4994139;28;20185;-77
2023/05/08 07:52:45;;;;;;;12.10;10.67;;;16.90;99.90;;;;;;5010947;28;20216;-77
2023/05/08 07:55:10;;;;;;;10.23;9.27;;;16.90;99.90;;;;;;5011411;28;20180;-77
2023/05/08 07:57:37;;;;;;;10.70;9.60;;;16.90;99.90;;;;;;5010272;28;20233;-77
2023/05/08 08:00:07;;;;;;;9.83;8.93;;;16.80;99.90;;;;;;5011357;28;20263;-77
2023/05/08 08:02:39;;;;;;;10.10;9.20;;;16.80;99.90;;;;;;5010891;28;20309;-77
2023/05/08 08:05:06;;;;;;;9.93;8.97;;;16.70;99.90;;;;;;5010551;28;20254;-77
2023/05/08 08:07:31;;;;;;;9.50;8.50;;;16.70;99.90;;;;;;5010161;28;20203;-77
2023/05/08 08:09:58;;;;;;;9.67;8.77;;;16.80;99.90;;;;;;5010174;28;20246;-77
2023/05/08 08:12:24;;;;;;;9.70;8.70;;;16.90;99.90;;;;;;5009925;28;20249;-77
2023/05/08 08:14:50;;;;;;;9.60;8.70;;;17.00;99.90;;;;;;5011538;28;20187;-77
2023/05/08 08:17:16;;;;;;;9.70;8.70;;;17.00;99.90;;;;;;5011526;28;20191;-77
2023/05/08 08:19:42;;;;;;;10.00;9.07;;;17.10;99.90;;;;;;5013890;28;20171;-77
2023/05/08 08:22:07;;;;;;;9.80;8.90;;;17.20;99.90;;;;;;5013096;28;20241;-77
2023/05/08 08:24:33;;;;;;;9.80;8.80;;;17.30;99.90;;;;;;5013756;28;20184;-77
2023/05/08 08:26:59;;;;;;;10.87;9.63;;;17.30;99.90;;;;;;5014701;28;20712;-77
2023/05/08 08:29:25;;;;;;;9.70;8.33;;;17.30;99.90;;;;;;5015036;28;20179;-77
2023/05/08 08:31:51;;;;;;;9.20;8.40;;;17.40;99.90;;;;;;5013312;28;20702;-77
2023/05/08 08:34:17;;;;;;;8.47;7.67;;;17.50;99.90;;;;;;5014509;28;20171;-77
2023/05/08 08:36:42;;;;;;;8.93;8.13;;;17.70;99.90;;;;;;5014544;28;20556;-77
2023/05/08 08:39:08;;;;;;;10.87;8.70;;;17.80;99.90;;;;;;5014499;28;20178;-77
2023/05/08 08:41:34;;;;;;;8.10;7.40;;;18.00;99.90;;;;;;5014558;28;20895;-77
2023/05/08 08:44:00;;;;;;;13.93;8.23;;;18.10;99.90;;;;;;5013138;28;20222;-77
2023/05/08 08:46:27;;;;;;;8.57;7.67;;;18.30;99.90;;;;;;5014188;28;20542;-77
2023/05/08 08:48:55;;;;;;;8.63;7.83;;;18.30;99.90;;;;;;5016417;28;20186;-78
2023/05/08 08:51:41;;;;;;;9.53;8.73;;;18.30;99.90;;;;;;5018015;28;20245;-77
2023/05/08 08:54:10;;;;;;;12.60;11.30;;;18.40;99.90;;;;;;5014040;28;20178;-77
2023/05/08 08:56:38;;;;;;;9.67;8.80;;;18.50;99.90;;;;;;5013867;28;20179;-77
2023/05/08 08:59:07;;;;;;;8.37;7.67;;;18.50;99.90;;;;;;5014187;28;20195;-77
2023/05/08 09:01:38;;;;;;;9.70;8.30;;;18.50;99.90;;;;;;5012830;28;20203;-77
2023/05/08 09:04:07;;;;;;;8.50;7.70;;;18.60;99.90;;;;;;5013028;28;20164;-77
2023/05/08 09:06:35;;;;;;;8.10;7.40;;;18.70;99.90;;;;;;5014597;28;20233;-77
2023/05/08 09:09:02;;;;;;;8.70;7.80;;;18.80;99.90;;;;;;5013968;28;20203;-77
2023/05/08 09:11:28;;;;;;;8.80;8.00;;;19.00;99.90;;;;;;5013958;28;20191;-77
2023/05/08 09:13:54;;;;;;;10.13;7.97;;;19.20;99.90;;;;;;5013694;28;20171;-77
2023/05/08 09:16:21;;;;;;;7.80;7.10;;;19.30;99.90;;;;;;4996268;28;20956;-77
2023/05/08 09:18:47;;;;;;;9.10;7.57;;;19.40;99.90;;;;;;5013928;28;20194;-78
2023/05/08 09:21:13;;;;;;;8.00;7.20;;;19.60;99.90;;;;;;5013670;28;20207;-78
2023/05/08 09:23:59;;;;;;;8.63;7.90;;;19.60;99.90;;;;;;5013599;28;20903;-78
2023/05/08 09:26:32;;;;;;;7.90;7.20;;;19.60;99.90;;;;;;5013673;28;20186;-78
2023/05/08 09:29:12;;;;;;;8.43;7.63;;;19.60;99.90;;;;;;5017274;28;20675;-78
2023/05/08 09:31:41;;;;;;;9.10;8.30;;;19.50;99.90;;;;;;4995038;28;20200;-78
2023/05/08 09:34:21;;;;;;;7.17;6.57;;;19.30;99.90;;;;;;5020654;28;20183;-79
2023/05/08 09:36:47;;;;;;;7.43;6.73;;;19.30;99.90;;;;;;5021071;28;20188;-76
2023/05/08 09:39:21;;;;;;;7.53;6.83;;;19.30;99.90;;;;;;5012649;28;20258;-77
2023/05/08 09:42:01;;;;;;;8.00;7.07;;;19.30;99.90;;;;;;5019390;28;20284;-76
2023/05/08 09:44:27;;;;;;;7.13;6.43;;;19.30;99.90;;;;;;5012129;28;20175;-77
2023/05/08 09:47:15;;;;;;;7.23;6.53;;;19.40;99.90;;;;;;5031719;28;20214;-79
2023/05/08 09:49:59;;;;;;;7.80;7.00;;;19.40;99.90;;;;;;5017692;28;20329;-78
2023/05/08 09:52:26;;;;;;;7.83;6.60;;;19.50;99.90;;;;;;5015929;28;20674;-78
2023/05/08 09:55:00;;;;;;;7.67;6.60;;;19.50;99.90;;;;;;5015538;28;20238;-79
2023/05/08 09:57:28;;;;;;;8.23;7.53;;;19.50;99.90;;;;;;5020228;28;20300;-79
2023/05/08 10:00:04;;;;;;;7.13;6.53;;;19.60;99.90;;;;;;5031130;28;20191;-79
2023/05/08 10:02:33;;;;;;;7.67;6.97;;;19.70;99.90;;;;;;5030959;28;20214;-79
2023/05/08 10:04:59;;;;;;;8.07;7.33;;;19.90;99.90;;;;;;5014028;28;20697;-79
2023/05/08 10:07:32;;;;;;;7.37;6.77;;;20.10;99.90;;;;;;4998800;28;20332;-79
2023/05/08 10:10:04;;;;;;;7.70;6.90;;;20.10;99.90;;;;;;5016759;28;20189;-79
2023/05/08 10:12:31;;;;;;;7.30;6.70;;;20.10;99.90;;;;;;5013634;28;20281;-79
2023/05/08 10:14:57;;;;;;;7.90;6.37;;;20.20;99.90;;;;;;5014188;28;20752;-79
2023/05/08 10:17:36;;;;;;;7.40;6.70;;;20.10;99.90;;;;;;5032080;28;20235;-79
2023/05/08 10:20:06;;;;;;;7.37;6.70;;;20.10;99.90;;;;;;5031844;28;20649;-79
2023/05/08 10:22:36;;;;;;;6.97;6.37;;;20.00;99.90;;;;;;5032923;28;20218;-79
2023/05/08 10:25:03;;;;;;;7.40;6.80;;;19.90;99.90;;;;;;5003402;28;20190;-79
2023/05/08 10:27:36;;;;;;;8.67;7.90;;;19.80;99.90;;;;;;5033491;28;20220;-79
2023/05/08 10:30:03;;;;;;;9.50;8.60;;;19.80;99.90;;;;;;5015692;28;20214;-78
2023/05/08 10:32:44;;;;;;;8.07;7.37;;;19.70;99.90;;;;;;5031781;28;20206;-79
2023/05/08 10:35:11;;;;;;;7.87;7.10;;;19.60;99.90;;;;;;5033690;28;20383;-79
2023/05/08 10:37:38;;;;;;;8.00;7.30;;;19.60;99.90;;;;;;5033515;28;20186;-79
2023/05/08 10:40:05;;;;;;;7.40;6.70;;;19.60;99.90;;;;;;5033376;28;20240;-79
2023/05/08 10:42:35;;;;;;;7.60;6.80;;;19.60;99.90;;;;;;5031052;28;20217;-79
2023/05/08 10:45:05;;;;;;;7.50;6.90;;;19.60;99.90;;;;;;5031932;28;20193;-79
2023/05/08 10:47:55;;;;;;;8.00;6.90;;;19.60;99.90;;;;;;5033667;28;20233;-79
2023/05/08 10:50:30;;;;;;;7.57;6.87;;;19.60;99.90;;;;;;5033174;28;20183;-79
2023/05/08 10:53:04;;;;;;;8.03;7.27;;;19.60;99.90;;;;;;5014934;28;20201;-79
2023/05/08 10:55:32;;;;;;;8.10;7.27;;;19.60;99.90;;;;;;5015157;28;20209;-79
2023/05/08 10:58:28;;;;;;;8.13;7.43;;;19.50;99.90;;;;;;5014906;28;20245;-79
2023/05/08 11:01:01;;;;;;;7.50;6.90;;;19.40;99.90;;;;;;5035630;28;20191;-78
2023/05/08 11:03:29;;;;;;;7.70;7.00;;;19.30;99.90;;;;;;5035741;28;20657;-79
2023/05/08 11:05:56;;;;;;;7.00;6.40;;;19.20;99.90;;;;;;5037956;28;20186;-79
2023/05/08 11:08:27;;;;;;;6.43;5.83;;;19.20;99.90;;;;;;5042078;28;20221;-79
2023/05/08 11:10:59;;;;;;;7.43;5.90;;;19.10;99.90;;;;;;5046522;28;20175;-79
2023/05/08 11:14:02;;;;;;;6.70;6.03;;;19.20;99.90;;;;;;5019148;28;20201;-79
2023/05/08 11:16:53;;;;;;;6.47;5.87;;;19.20;99.90;;;;;;5034685;28;20281;-79
2023/05/08 11:19:26;;;;;;;6.40;5.80;;;19.20;99.90;;;;;;5036712;28;20807;-79
2023/05/08 11:22:28;;;;;;;7.60;6.60;;;19.30;99.90;;;;;;5035403;28;20212;-79
2023/05/08 11:24:58;;;;;;;7.70;6.23;;;19.30;99.90;;;;;;5034982;28;20182;-79
2023/05/08 11:27:48;;;;;;;7.20;6.60;;;19.40;99.90;;;;;;5035000;28;20209;-79
2023/05/08 11:30:33;;;;;;;6.50;5.90;;;19.50;99.90;;;;;;5036463;28;20198;-79
2023/05/08 11:33:02;;;;;;;7.20;6.50;;;19.50;99.90;;;;;;5036484;28;20219;-79
2023/05/08 11:35:40;;;;;;;6.73;6.13;;;19.60;99.90;;;;;;5035393;28;20175;-79
2023/05/08 11:38:20;;;;;;;6.93;6.20;;;19.70;99.90;;;;;;5036581;28;20184;-79
2023/05/08 11:41:04;;;;;;;6.57;5.97;;;19.80;99.90;;;;;;5019018;28;20225;-79
2023/05/08 11:43:32;;;;;;;6.10;5.50;;;19.80;99.90;;;;;;5017996;28;20313;-79
2023/05/08 11:46:07;;;;;;;7.73;5.93;;;19.80;99.90;;;;;;5034694;28;20693;-79
2023/05/08 11:48:34;;;;;;;6.67;6.07;;;19.80;99.90;;;;;;5017828;28;20687;-78
2023/05/08 11:51:00;;;;;;;6.37;5.77;;;19.90;99.90;;;;;;5036005;28;20178;-79
2023/05/08 11:53:30;;;;;;;5.70;5.20;;;19.90;99.90;;;;;;5036619;28;20528;-79
2023/05/08 11:55:56;;;;;;;6.37;5.60;;;19.90;99.90;;;;;;5039912;28;20171;-79
2023/05/08 11:58:22;;;;;;;6.20;5.70;;;19.90;99.90;;;;;;5039352;28;20244;-79
2023/05/08 12:00:48;;;;;;;5.90;5.40;;;19.80;99.90;;;;;;5021601;28;20186;-79
2023/05/08 12:03:19;;;;;;;6.57;5.97;;;19.70;99.90;;;;;;5037773;28;20210;-79
2023/05/08 12:05:45;;;;;;;6.10;5.50;;;19.60;99.90;;;;;;5037535;28;20269;-79
2023/05/08 12:08:12;;;;;;;5.10;4.70;;;19.50;99.90;;;;;;5038566;28;20582;-79
2023/05/08 12:10:39;;;;;;;6.07;5.47;;;19.50;99.90;;;;;;5036682;28;20175;-79
2023/05/08 12:13:15;;;;;;;5.53;5.03;;;19.50;99.90;;;;;;5038181;28;20194;-79
2023/05/08 12:15:41;;;;;;;5.90;5.30;;;19.50;99.90;;;;;;5038266;28;20183;-79
2023/05/08 12:18:07;;;;;;;6.47;5.30;;;19.40;99.90;;;;;;5038524;28;20178;-79
2023/05/08 12:20:33;;;;;;;5.40;4.90;;;19.40;99.90;;;;;;5037033;28;20183;-79
2023/05/08 12:23:01;;;;;;;5.70;5.20;;;19.40;99.90;;;;;;5020178;28;20246;-79
2023/05/08 12:25:27;;;;;;;5.27;4.83;;;19.30;99.90;;;;;;5036910;28;20183;-79
2023/05/08 12:27:53;;;;;;;6.10;4.80;;;19.40;99.90;;;;;;5036601;28;20668;-79
2023/05/08 12:30:19;;;;;;;5.37;4.87;;;19.40;99.90;;;;;;5037782;28;20170;-79
2023/05/08 12:32:46;;;;;;;4.80;4.40;;;19.50;99.90;;;;;;5037408;28;20195;-79
2023/05/08 12:35:13;;;;;;;4.93;4.53;;;19.50;99.90;;;;;;5048008;28;20179;-79
2023/05/08 12:37:39;;;;;;;5.30;4.33;;;19.60;99.90;;;;;;5042476;28;20194;-79
2023/05/08 12:40:06;;;;;;;5.40;5.00;;;19.70;99.90;;;;;;5037993;28;20181;-79
2023/05/08 12:42:42;;;;;;;5.13;4.73;;;19.70;99.90;;;;;;5037259;28;20194;-79
2023/05/08 12:45:15;;;;;;;4.70;4.30;;;19.80;99.90;;;;;;5036172;28;20190;-79
2023/05/08 12:47:44;;;;;;;4.50;4.10;;;19.80;99.90;;;;;;5037002;28;20230;-79
2023/05/08 12:50:13;;;;;;;4.13;3.70;;;19.80;99.90;;;;;;5036935;28;20233;-79
2023/05/08 12:52:38;;;;;;;4.20;3.90;;;19.70;99.90;;;;;;5034809;28;20205;-79
2023/05/08 12:55:04;;;;;;;4.20;3.80;;;19.80;99.90;;;;;;5035336;28;20183;-79
2023/05/08 12:57:30;;;;;;;4.60;4.20;;;19.70;99.90;;;;;;5019402;28;20182;-81
2023/05/08 13:00:03;;;;;;;4.63;4.23;;;19.80;99.90;;;;;;5034671;28;20245;-79
2023/05/08 13:02:30;;;;;;;5.20;4.80;;;19.80;99.90;;;;;;5001971;28;20309;-79
2023/05/08 13:04:58;;;;;;;5.07;4.67;;;19.80;99.90;;;;;;5034555;28;20242;-79